sensor_id;sensor_type;location;lat;lon;timestamp;temperature;humidity
12557;DHT22;6344;49.932;8.308;2023-05-29T00:00:35;15.20;1.00
12557;DHT22;6344;49.932;8.308;2023-05-29T00:03:02;15.40;1.00
12557;DHT22;6344;49.932;8.308;2023-05-29T00:05:30;15.20;1.00
12557;DHT22;6344;49.932;8.308;2023-05-29T00:07:57;15.00;1.00
12557;DHT22;6344;49.932;8.308;2023-05-29T00:10:23;15.00;1.00
12557;DHT22;6344;49.932;8.308;2023-05-29T00:12:50;15.10;1.00
12557;DHT22;6344;49.932;8.308;2023-05-29T00:15:18;15.10;1.00
12557;DHT22;6344;49.932;8.308;2023-05-29T00:17:45;15.00;1.00
12557;DHT22;6344;49.932;8.308;2023-05-29T00:20:12;15.00;1.00
12557;DHT22;6344;49.932;8.308;2023-05-29T00:22:39;15.00;1.00
12557;DHT22;6344;49.932;8.308;2023-05-29T00:25:06;15.00;1.00
12557;DHT22;6344;49.932;8.308;2023-05-29T00:27:34;14.90;1.00
12557;DHT22;6344;49.932;8.308;2023-05-29T00:30:01;14.70;1.00
12557;DHT22;6344;49.932;8.308;2023-05-29T00:32:29;14.60;1.00
12557;DHT22;6344;49.932;8.308;2023-05-29T00:34:56;14.60;1.00
12557;DHT22;6344;49.932;8.308;2023-05-29T00:37:22;14.60;1.00
12557;DHT22;6344;49.932;8.308;2023-05-29T00:39:49;14.50;1.00
12557;DHT22;6344;49.932;8.308;2023-05-29T00:42:16;14.40;1.00
12557;DHT22;6344;49.932;8.308;2023-05-29T00:44:43;14.20;1.00
12557;DHT22;6344;49.932;8.308;2023-05-29T00:47:10;14.00;1.00
12557;DHT22;6344;49.932;8.308;2023-05-29T00:49:38;13.90;1.00
12557;DHT22;6344;49.932;8.308;2023-05-29T00:52:06;13.80;1.00
12557;DHT22;6344;49.932;8.308;2023-05-29T00:54:33;13.80;1.00
12557;DHT22;6344;49.932;8.308;2023-05-29T00:57:01;13.80;1.00
12557;DHT22;6344;49.932;8.308;2023-05-29T00:59:30;13.70;1.00
12557;DHT22;6344;49.932;8.308;2023-05-29T01:01:58;13.70;1.00
12557;DHT22;6344;49.932;8.308;2023-05-29T01:04:26;13.60;5.10
12557;DHT22;6344;49.932;8.308;2023-05-29T01:06:54;13.50;10.70
12557;DHT22;6344;49.932;8.308;2023-05-29T01:09:21;13.50;13.20
12557;DHT22;6344;49.932;8.308;2023-05-29T01:11:54;13.40;9.80
12557;DHT22;6344;49.932;8.308;2023-05-29T01:14:29;13.40;6.50
12557;DHT22;6344;49.932;8.308;2023-05-29T01:17:04;13.50;5.80
12557;DHT22;6344;49.932;8.308;2023-05-29T01:19:46;13.30;16.90
12557;DHT22;6344;49.932;8.308;2023-05-29T01:22:30;13.30;16.50
12557;DHT22;6344;49.932;8.308;2023-05-29T01:25:07;13.20;19.50
12557;DHT22;6344;49.932;8.308;2023-05-29T01:27:39;13.00;35.80
12557;DHT22;6344;49.932;8.308;2023-05-29T01:30:08;12.80;74.60
12557;DHT22;6344;49.932;8.308;2023-05-29T01:32:36;12.90;67.50
12557;DHT22;6344;49.932;8.308;2023-05-29T01:35:04;12.70;97.50
12557;DHT22;6344;49.932;8.308;2023-05-29T01:37:31;12.50;99.90
12557;DHT22;6344;49.932;8.308;2023-05-29T01:39:58;12.30;99.90
12557;DHT22;6344;49.932;8.308;2023-05-29T01:42:26;12.30;99.90
12557;DHT22;6344;49.932;8.308;2023-05-29T01:44:54;12.30;99.90
12557;DHT22;6344;49.932;8.308;2023-05-29T01:47:22;12.30;99.90
12557;DHT22;6344;49.932;8.308;2023-05-29T01:49:50;12.30;99.90
12557;DHT22;6344;49.932;8.308;2023-05-29T01:52:17;12.40;99.90
12557;DHT22;6344;49.932;8.308;2023-05-29T01:54:44;12.60;99.90
12557;DHT22;6344;49.932;8.308;2023-05-29T01:57:11;12.50;99.90
12557;DHT22;6344;49.932;8.308;2023-05-29T01:59:39;12.60;99.90
12557;DHT22;6344;49.932;8.308;2023-05-29T02:02:08;12.50;99.90
12557;DHT22;6344;49.932;8.308;2023-05-29T02:04:35;12.40;99.90
12557;DHT22;6344;49.932;8.308;2023-05-29T02:07:01;12.40;99.90
12557;DHT22;6344;49.932;8.308;2023-05-29T02:09:28;12.30;99.90
12557;DHT22;6344;49.932;8.308;2023-05-29T02:11:56;12.20;99.90
12557;DHT22;6344;49.932;8.308;2023-05-29T02:14:22;12.20;99.90
12557;DHT22;6344;49.932;8.308;2023-05-29T02:16:50;12.00;99.90
12557;DHT22;6344;49.932;8.308;2023-05-29T02:19:18;11.80;99.90
12557;DHT22;6344;49.932;8.308;2023-05-29T02:21:47;11.70;99.20
12557;DHT22;6344;49.932;8.308;2023-05-29T02:24:14;11.70;1.00
12557;DHT22;6344;49.932;8.308;2023-05-29T02:26:40;11.70;1.00
12557;DHT22;6344;49.932;8.308;2023-05-29T02:29:07;11.70;1.00
12557;DHT22;6344;49.932;8.308;2023-05-29T02:31:34;11.60;99.90
12557;DHT22;6344;49.932;8.308;2023-05-29T02:34:00;11.60;99.90
12557;DHT22;6344;49.932;8.308;2023-05-29T02:36:28;11.40;99.90
12557;DHT22;6344;49.932;8.308;2023-05-29T02:38:55;11.30;99.90
12557;DHT22;6344;49.932;8.308;2023-05-29T02:41:22;11.30;99.90
12557;DHT22;6344;49.932;8.308;2023-05-29T02:43:48;11.20;99.90
12557;DHT22;6344;49.932;8.308;2023-05-29T02:46:15;11.20;99.90
12557;DHT22;6344;49.932;8.308;2023-05-29T02:48:41;11.20;99.90
12557;DHT22;6344;49.932;8.308;2023-05-29T02:51:08;11.10;99.90
12557;DHT22;6344;49.932;8.308;2023-05-29T02:53:36;11.20;99.90
12557;DHT22;6344;49.932;8.308;2023-05-29T02:56:03;11.30;99.90
12557;DHT22;6344;49.932;8.308;2023-05-29T02:58:30;11.10;99.90
12557;DHT22;6344;49.932;8.308;2023-05-29T03:00:56;11.10;99.90
12557;DHT22;6344;49.932;8.308;2023-05-29T03:03:23;11.00;99.90
12557;DHT22;6344;49.932;8.308;2023-05-29T03:05:50;11.00;99.90
12557;DHT22;6344;49.932;8.308;2023-05-29T03:08:17;11.00;99.90
12557;DHT22;6344;49.932;8.308;2023-05-29T03:10:45;11.00;99.90
12557;DHT22;6344;49.932;8.308;2023-05-29T03:13:13;10.90;99.90
12557;DHT22;6344;49.932;8.308;2023-05-29T03:15:39;10.80;99.90
12557;DHT22;6344;49.932;8.308;2023-05-29T03:18:06;10.70;99.90
12557;DHT22;6344;49.932;8.308;2023-05-29T03:20:32;10.80;99.90
12557;DHT22;6344;49.932;8.308;2023-05-29T03:22:59;10.70;99.90
12557;DHT22;6344;49.932;8.308;2023-05-29T03:25:26;10.70;99.90
12557;DHT22;6344;49.932;8.308;2023-05-29T03:27:54;10.90;99.90
12557;DHT22;6344;49.932;8.308;2023-05-29T03:30:21;11.10;99.90
12557;DHT22;6344;49.932;8.308;2023-05-29T03:32:47;11.00;99.90
12557;DHT22;6344;49.932;8.308;2023-05-29T03:35:14;11.00;99.90
12557;DHT22;6344;49.932;8.308;2023-05-29T03:37:40;11.00;99.90
12557;DHT22;6344;49.932;8.308;2023-05-29T03:40:08;10.90;99.90
12557;DHT22;6344;49.932;8.308;2023-05-29T03:42:36;10.80;99.90
12557;DHT22;6344;49.932;8.308;2023-05-29T03:45:04;10.80;99.90
12557;DHT22;6344;49.932;8.308;2023-05-29T03:47:31;10.90;99.90
12557;DHT22;6344;49.932;8.308;2023-05-29T03:49:58;10.90;99.90
12557;DHT22;6344;49.932;8.308;2023-05-29T03:52:24;10.90;99.90
12557;DHT22;6344;49.932;8.308;2023-05-29T03:54:51;11.00;99.90
12557;DHT22;6344;49.932;8.308;2023-05-29T03:57:18;11.10;99.90
12557;DHT22;6344;49.932;8.308;2023-05-29T03:59:44;11.10;99.90
12557;DHT22;6344;49.932;8.308;2023-05-29T04:02:12;11.10;99.90
12557;DHT22;6344;49.932;8.308;2023-05-29T04:04:39;11.40;99.90
12557;DHT22;6344;49.932;8.308;2023-05-29T04:07:06;11.30;99.90
12557;DHT22;6344;49.932;8.308;2023-05-29T04:09:33;11.30;99.90
12557;DHT22;6344;49.932;8.308;2023-05-29T04:12:00;11.40;99.90
12557;DHT22;6344;49.932;8.308;2023-05-29T04:14:27;11.40;99.90
12557;DHT22;6344;49.932;8.308;2023-05-29T04:16:54;11.40;99.90
12557;DHT22;6344;49.932;8.308;2023-05-29T04:19:22;11.50;99.90
12557;DHT22;6344;49.932;8.308;2023-05-29T04:21:48;11.70;99.90
12557;DHT22;6344;49.932;8.308;2023-05-29T04:24:16;11.80;99.90
12557;DHT22;6344;49.932;8.308;2023-05-29T04:26:43;12.00;99.90
12557;DHT22;6344;49.932;8.308;2023-05-29T04:29:09;12.00;99.90
12557;DHT22;6344;49.932;8.308;2023-05-29T04:31:38;12.30;99.90
12557;DHT22;6344;49.932;8.308;2023-05-29T04:34:04;12.30;99.90
12557;DHT22;6344;49.932;8.308;2023-05-29T04:36:33;12.50;99.90
12557;DHT22;6344;49.932;8.308;2023-05-29T04:39:04;12.70;99.90
12557;DHT22;6344;49.932;8.308;2023-05-29T04:41:32;13.10;99.90
12557;DHT22;6344;49.932;8.308;2023-05-29T04:43:58;13.30;71.80
12557;DHT22;6344;49.932;8.308;2023-05-29T04:46:25;13.60;99.90
12557;DHT22;6344;49.932;8.308;2023-05-29T04:48:52;14.00;96.80
12557;DHT22;6344;49.932;8.308;2023-05-29T04:51:19;14.20;99.90
12557;DHT22;6344;49.932;8.308;2023-05-29T04:53:48;14.40;99.90
12557;DHT22;6344;49.932;8.308;2023-05-29T04:56:15;14.50;99.90
12557;DHT22;6344;49.932;8.308;2023-05-29T04:58:42;14.70;99.90
12557;DHT22;6344;49.932;8.308;2023-05-29T05:01:08;14.80;99.90
12557;DHT22;6344;49.932;8.308;2023-05-29T05:03:39;14.90;99.90
12557;DHT22;6344;49.932;8.308;2023-05-29T05:06:06;15.00;99.90
12557;DHT22;6344;49.932;8.308;2023-05-29T05:08:33;15.10;99.90
12557;DHT22;6344;49.932;8.308;2023-05-29T05:11:01;15.20;99.90
12557;DHT22;6344;49.932;8.308;2023-05-29T05:13:28;15.30;99.90
12557;DHT22;6344;49.932;8.308;2023-05-29T05:15:55;15.30;99.90
12557;DHT22;6344;49.932;8.308;2023-05-29T05:18:21;15.40;99.90
12557;DHT22;6344;49.932;8.308;2023-05-29T05:20:48;15.50;99.90
12557;DHT22;6344;49.932;8.308;2023-05-29T05:23:14;15.60;99.90
12557;DHT22;6344;49.932;8.308;2023-05-29T05:25:41;15.80;99.90
12557;DHT22;6344;49.932;8.308;2023-05-29T05:28:09;15.90;99.90
12557;DHT22;6344;49.932;8.308;2023-05-29T05:30:36;16.10;99.90
12557;DHT22;6344;49.932;8.308;2023-05-29T05:33:03;16.20;99.90
12557;DHT22;6344;49.932;8.308;2023-05-29T05:35:29;16.30;99.90
12557;DHT22;6344;49.932;8.308;2023-05-29T05:37:56;16.40;99.90
12557;DHT22;6344;49.932;8.308;2023-05-29T05:40:24;16.50;99.90
12557;DHT22;6344;49.932;8.308;2023-05-29T05:42:51;16.50;99.90
12557;DHT22;6344;49.932;8.308;2023-05-29T05:45:19;16.60;99.90
12557;DHT22;6344;49.932;8.308;2023-05-29T05:47:46;16.80;99.90
12557;DHT22;6344;49.932;8.308;2023-05-29T05:50:13;16.90;99.90
12557;DHT22;6344;49.932;8.308;2023-05-29T05:52:39;17.10;99.90
12557;DHT22;6344;49.932;8.308;2023-05-29T05:55:07;17.20;99.90
12557;DHT22;6344;49.932;8.308;2023-05-29T05:57:34;17.50;99.90
12557;DHT22;6344;49.932;8.308;2023-05-29T06:00:01;17.50;99.90
12557;DHT22;6344;49.932;8.308;2023-05-29T06:02:31;17.90;99.90
12557;DHT22;6344;49.932;8.308;2023-05-29T06:04:58;18.20;99.90
12557;DHT22;6344;49.932;8.308;2023-05-29T06:07:24;18.30;99.90
12557;DHT22;6344;49.932;8.308;2023-05-29T06:09:51;18.30;99.90
12557;DHT22;6344;49.932;8.308;2023-05-29T06:12:18;18.70;99.90
12557;DHT22;6344;49.932;8.308;2023-05-29T06:14:44;18.80;99.90
12557;DHT22;6344;49.932;8.308;2023-05-29T06:17:11;19.20;99.90
12557;DHT22;6344;49.932;8.308;2023-05-29T06:19:39;19.00;1.00
12557;DHT22;6344;49.932;8.308;2023-05-29T06:22:06;18.80;1.00
12557;DHT22;6344;49.932;8.308;2023-05-29T06:24:33;19.00;1.00
12557;DHT22;6344;49.932;8.308;2023-05-29T06:26:59;19.10;1.00
12557;DHT22;6344;49.932;8.308;2023-05-29T06:29:27;19.10;1.00
12557;DHT22;6344;49.932;8.308;2023-05-29T06:31:53;19.20;1.00
12557;DHT22;6344;49.932;8.308;2023-05-29T06:34:20;19.40;1.00
12557;DHT22;6344;49.932;8.308;2023-05-29T06:36:48;19.30;1.00
12557;DHT22;6344;49.932;8.308;2023-05-29T06:39:15;19.50;1.00
12557;DHT22;6344;49.932;8.308;2023-05-29T06:41:43;19.40;1.00
12557;DHT22;6344;49.932;8.308;2023-05-29T06:44:10;19.50;1.00
12557;DHT22;6344;49.932;8.308;2023-05-29T06:46:36;19.80;1.00
12557;DHT22;6344;49.932;8.308;2023-05-29T06:49:03;20.20;1.00
12557;DHT22;6344;49.932;8.308;2023-05-29T06:51:30;20.00;1.00
12557;DHT22;6344;49.932;8.308;2023-05-29T06:53:59;20.40;1.00
12557;DHT22;6344;49.932;8.308;2023-05-29T06:56:25;21.10;1.00
12557;DHT22;6344;49.932;8.308;2023-05-29T06:58:53;21.00;99.90
12557;DHT22;6344;49.932;8.308;2023-05-29T07:01:19;20.80;99.90
12557;DHT22;6344;49.932;8.308;2023-05-29T07:03:46;21.00;99.90
12557;DHT22;6344;49.932;8.308;2023-05-29T07:06:17;21.10;99.90
12557;DHT22;6344;49.932;8.308;2023-05-29T07:08:44;21.20;99.90
12557;DHT22;6344;49.932;8.308;2023-05-29T07:11:12;21.40;99.90
12557;DHT22;6344;49.932;8.308;2023-05-29T07:13:38;21.40;99.90
12557;DHT22;6344;49.932;8.308;2023-05-29T07:16:06;21.50;99.90
12557;DHT22;6344;49.932;8.308;2023-05-29T07:18:32;21.40;99.90
12557;DHT22;6344;49.932;8.308;2023-05-29T07:21:00;21.40;99.90
12557;DHT22;6344;49.932;8.308;2023-05-29T07:23:27;21.30;99.90
12557;DHT22;6344;49.932;8.308;2023-05-29T07:25:53;21.70;99.90
12557;DHT22;6344;49.932;8.308;2023-05-29T07:28:21;21.90;99.90
12557;DHT22;6344;49.932;8.308;2023-05-29T07:30:48;21.80;99.90
12557;DHT22;6344;49.932;8.308;2023-05-29T07:33:15;21.90;99.90
12557;DHT22;6344;49.932;8.308;2023-05-29T07:35:42;22.50;1.00
12557;DHT22;6344;49.932;8.308;2023-05-29T07:38:08;22.10;1.00
12557;DHT22;6344;49.932;8.308;2023-05-29T07:40:35;22.00;1.00
12557;DHT22;6344;49.932;8.308;2023-05-29T07:43:01;22.30;99.90
12557;DHT22;6344;49.932;8.308;2023-05-29T07:45:29;21.70;99.90
12557;DHT22;6344;49.932;8.308;2023-05-29T07:47:56;22.40;99.90
12557;DHT22;6344;49.932;8.308;2023-05-29T07:50:23;22.70;99.90
12557;DHT22;6344;49.932;8.308;2023-05-29T07:52:49;23.40;1.00
12557;DHT22;6344;49.932;8.308;2023-05-29T07:55:16;23.10;1.00
12557;DHT22;6344;49.932;8.308;2023-05-29T07:57:42;22.90;1.00
12557;DHT22;6344;49.932;8.308;2023-05-29T08:00:10;22.90;99.90
12557;DHT22;6344;49.932;8.308;2023-05-29T08:02:39;23.20;99.90
12557;DHT22;6344;49.932;8.308;2023-05-29T08:05:07;23.00;1.00
12557;DHT22;6344;49.932;8.308;2023-05-29T08:07:34;22.80;1.00
12557;DHT22;6344;49.932;8.308;2023-05-29T08:10:01;22.70;1.00
12557;DHT22;6344;49.932;8.308;2023-05-29T08:12:27;22.70;1.00
12557;DHT22;6344;49.932;8.308;2023-05-29T08:14:54;23.00;1.00
12557;DHT22;6344;49.932;8.308;2023-05-29T08:17:20;22.90;1.00
12557;DHT22;6344;49.932;8.308;2023-05-29T08:19:48;23.10;1.00
12557;DHT22;6344;49.932;8.308;2023-05-29T08:22:15;23.10;1.00
12557;DHT22;6344;49.932;8.308;2023-05-29T08:24:42;23.90;1.00
12557;DHT22;6344;49.932;8.308;2023-05-29T08:27:08;23.80;1.00
12557;DHT22;6344;49.932;8.308;2023-05-29T08:29:35;23.50;1.00
12557;DHT22;6344;49.932;8.308;2023-05-29T08:32:04;24.10;1.00
12557;DHT22;6344;49.932;8.308;2023-05-29T08:34:30;24.60;99.90
12557;DHT22;6344;49.932;8.308;2023-05-29T08:36:58;24.70;99.90
12557;DHT22;6344;49.932;8.308;2023-05-29T08:39:25;24.40;99.90
12557;DHT22;6344;49.932;8.308;2023-05-29T08:41:59;24.40;99.90
12557;DHT22;6344;49.932;8.308;2023-05-29T08:44:29;24.70;99.90
12557;DHT22;6344;49.932;8.308;2023-05-29T08:46:56;25.00;99.90
12557;DHT22;6344;49.932;8.308;2023-05-29T08:49:24;24.90;99.90
12557;DHT22;6344;49.932;8.308;2023-05-29T08:52:05;25.70;99.90
12557;DHT22;6344;49.932;8.308;2023-05-29T08:54:35;25.60;99.90
12557;DHT22;6344;49.932;8.308;2023-05-29T08:57:02;25.60;99.90
12557;DHT22;6344;49.932;8.308;2023-05-29T08:59:30;25.60;99.90
12557;DHT22;6344;49.932;8.308;2023-05-29T09:01:57;25.60;99.90
12557;DHT22;6344;49.932;8.308;2023-05-29T09:04:23;26.00;1.00
12557;DHT22;6344;49.932;8.308;2023-05-29T09:06:50;26.60;1.00
12557;DHT22;6344;49.932;8.308;2023-05-29T09:09:22;26.80;1.00
12557;DHT22;6344;49.932;8.308;2023-05-29T09:11:49;27.00;1.00
12557;DHT22;6344;49.932;8.308;2023-05-29T09:14:34;27.20;1.00
12557;DHT22;6344;49.932;8.308;2023-05-29T09:17:01;27.20;1.00
12557;DHT22;6344;49.932;8.308;2023-05-29T09:19:28;27.00;1.00
12557;DHT22;6344;49.932;8.308;2023-05-29T09:22:01;27.60;1.00
12557;DHT22;6344;49.932;8.308;2023-05-29T09:24:29;27.40;1.00
12557;DHT22;6344;49.932;8.308;2023-05-29T09:26:56;27.60;1.00
12557;DHT22;6344;49.932;8.308;2023-05-29T09:29:25;27.90;1.00
12557;DHT22;6344;49.932;8.308;2023-05-29T09:31:52;27.80;1.00
12557;DHT22;6344;49.932;8.308;2023-05-29T09:34:18;28.20;1.00
12557;DHT22;6344;49.932;8.308;2023-05-29T09:36:45;28.50;1.00
12557;DHT22;6344;49.932;8.308;2023-05-29T09:39:11;28.00;1.00
12557;DHT22;6344;49.932;8.308;2023-05-29T09:41:43;28.10;1.00
12557;DHT22;6344;49.932;8.308;2023-05-29T09:44:12;28.10;1.00
12557;DHT22;6344;49.932;8.308;2023-05-29T09:46:40;28.00;1.00
12557;DHT22;6344;49.932;8.308;2023-05-29T09:49:10;28.00;1.00
12557;DHT22;6344;49.932;8.308;2023-05-29T09:51:37;28.80;1.00
12557;DHT22;6344;49.932;8.308;2023-05-29T09:54:13;28.80;1.00
12557;DHT22;6344;49.932;8.308;2023-05-29T09:56:42;28.40;1.00
12557;DHT22;6344;49.932;8.308;2023-05-29T09:59:11;28.70;1.00
12557;DHT22;6344;49.932;8.308;2023-05-29T10:01:40;29.20;1.00
12557;DHT22;6344;49.932;8.308;2023-05-29T10:04:07;29.40;1.00
12557;DHT22;6344;49.932;8.308;2023-05-29T10:06:35;28.90;1.00
12557;DHT22;6344;49.932;8.308;2023-05-29T10:09:03;27.70;1.00
12557;DHT22;6344;49.932;8.308;2023-05-29T10:11:34;28.20;1.00
12557;DHT22;6344;49.932;8.308;2023-05-29T10:14:03;28.30;1.00
12557;DHT22;6344;49.932;8.308;2023-05-29T10:16:30;28.70;1.00
12557;DHT22;6344;49.932;8.308;2023-05-29T10:19:01;29.10;1.00
12557;DHT22;6344;49.932;8.308;2023-05-29T10:21:33;28.70;1.00
12557;DHT22;6344;49.932;8.308;2023-05-29T10:24:05;28.60;1.00
12557;DHT22;6344;49.932;8.308;2023-05-29T10:26:36;28.40;1.00
12557;DHT22;6344;49.932;8.308;2023-05-29T10:29:09;27.30;1.00
12557;DHT22;6344;49.932;8.308;2023-05-29T10:31:46;28.00;1.00
12557;DHT22;6344;49.932;8.308;2023-05-29T10:34:20;28.70;1.00
12557;DHT22;6344;49.932;8.308;2023-05-29T10:37:03;28.90;1.00
12557;DHT22;6344;49.932;8.308;2023-05-29T10:39:31;29.30;1.00
12557;DHT22;6344;49.932;8.308;2023-05-29T10:41:59;29.60;1.00
12557;DHT22;6344;49.932;8.308;2023-05-29T10:44:39;29.20;1.00
12557;DHT22;6344;49.932;8.308;2023-05-29T10:47:07;28.70;1.00
12557;DHT22;6344;49.932;8.308;2023-05-29T10:49:36;28.70;1.00
12557;DHT22;6344;49.932;8.308;2023-05-29T10:52:04;28.70;1.00
12557;DHT22;6344;49.932;8.308;2023-05-29T10:54:40;28.90;1.00
12557;DHT22;6344;49.932;8.308;2023-05-29T10:57:08;29.00;1.00
12557;DHT22;6344;49.932;8.308;2023-05-29T10:59:36;29.20;1.00
12557;DHT22;6344;49.932;8.308;2023-05-29T11:02:05;28.90;1.00
12557;DHT22;6344;49.932;8.308;2023-05-29T11:04:32;28.80;1.00
12557;DHT22;6344;49.932;8.308;2023-05-29T11:07:00;28.70;1.00
12557;DHT22;6344;49.932;8.308;2023-05-29T11:09:30;28.60;1.00
12557;DHT22;6344;49.932;8.308;2023-05-29T11:12:14;29.10;1.00
12557;DHT22;6344;49.932;8.308;2023-05-29T11:14:54;29.10;1.00
12557;DHT22;6344;49.932;8.308;2023-05-29T11:17:42;28.90;1.00
12557;DHT22;6344;49.932;8.308;2023-05-29T11:20:17;28.60;1.00
12557;DHT22;6344;49.932;8.308;2023-05-29T11:22:58;29.60;1.00
12557;DHT22;6344;49.932;8.308;2023-05-29T11:25:27;29.80;1.00
12557;DHT22;6344;49.932;8.308;2023-05-29T11:27:54;28.90;1.00
12557;DHT22;6344;49.932;8.308;2023-05-29T11:30:21;29.00;1.00
12557;DHT22;6344;49.932;8.308;2023-05-29T11:32:49;29.30;1.00
12557;DHT22;6344;49.932;8.308;2023-05-29T11:35:21;28.80;1.00
12557;DHT22;6344;49.932;8.308;2023-05-29T11:37:48;29.10;1.00
12557;DHT22;6344;49.932;8.308;2023-05-29T11:40:15;29.30;1.00
12557;DHT22;6344;49.932;8.308;2023-05-29T11:42:43;29.20;1.00
12557;DHT22;6344;49.932;8.308;2023-05-29T11:45:15;29.20;1.00
12557;DHT22;6344;49.932;8.308;2023-05-29T11:47:57;29.10;1.00
12557;DHT22;6344;49.932;8.308;2023-05-29T11:50:25;28.90;1.00
12557;DHT22;6344;49.932;8.308;2023-05-29T11:52:52;29.60;1.00
12557;DHT22;6344;49.932;8.308;2023-05-29T11:55:20;30.00;1.00
12557;DHT22;6344;49.932;8.308;2023-05-29T11:57:47;29.10;1.00
12557;DHT22;6344;49.932;8.308;2023-05-29T12:00:15;29.50;1.00
12557;DHT22;6344;49.932;8.308;2023-05-29T12:02:42;29.10;1.00
12557;DHT22;6344;49.932;8.308;2023-05-29T12:05:15;28.90;1.00
12557;DHT22;6344;49.932;8.308;2023-05-29T12:07:50;28.60;1.00
12557;DHT22;6344;49.932;8.308;2023-05-29T12:10:21;29.70;1.00
12557;DHT22;6344;49.932;8.308;2023-05-29T12:12:48;29.80;1.00
12557;DHT22;6344;49.932;8.308;2023-05-29T12:15:15;30.50;1.00
12557;DHT22;6344;49.932;8.308;2023-05-29T12:17:43;30.20;1.00
12557;DHT22;6344;49.932;8.308;2023-05-29T12:20:12;30.60;1.00
12557;DHT22;6344;49.932;8.308;2023-05-29T12:22:40;30.20;1.00
12557;DHT22;6344;49.932;8.308;2023-05-29T12:25:09;29.60;1.00
12557;DHT22;6344;49.932;8.308;2023-05-29T12:27:38;29.90;1.00
12557;DHT22;6344;49.932;8.308;2023-05-29T12:30:09;30.00;1.00
12557;DHT22;6344;49.932;8.308;2023-05-29T12:32:37;29.20;1.00
12557;DHT22;6344;49.932;8.308;2023-05-29T12:35:13;28.50;1.00
12557;DHT22;6344;49.932;8.308;2023-05-29T12:37:45;28.70;1.00
12557;DHT22;6344;49.932;8.308;2023-05-29T12:40:17;28.40;1.00
12557;DHT22;6344;49.932;8.308;2023-05-29T12:42:45;28.80;1.00
12557;DHT22;6344;49.932;8.308;2023-05-29T12:45:12;28.90;1.00
12557;DHT22;6344;49.932;8.308;2023-05-29T12:47:45;29.00;1.00
12557;DHT22;6344;49.932;8.308;2023-05-29T12:50:24;29.20;1.00
12557;DHT22;6344;49.932;8.308;2023-05-29T12:52:58;29.20;1.00
12557;DHT22;6344;49.932;8.308;2023-05-29T12:55:26;28.90;1.00
12557;DHT22;6344;49.932;8.308;2023-05-29T12:57:53;29.40;1.00
12557;DHT22;6344;49.932;8.308;2023-05-29T13:00:21;29.60;1.00
12557;DHT22;6344;49.932;8.308;2023-05-29T13:02:48;30.20;1.00
12557;DHT22;6344;49.932;8.308;2023-05-29T13:05:15;30.00;1.00
12557;DHT22;6344;49.932;8.308;2023-05-29T13:07:46;30.70;1.00
12557;DHT22;6344;49.932;8.308;2023-05-29T13:10:13;30.60;1.00
12557;DHT22;6344;49.932;8.308;2023-05-29T13:12:40;29.10;1.00
12557;DHT22;6344;49.932;8.308;2023-05-29T13:15:07;29.60;1.00
12557;DHT22;6344;49.932;8.308;2023-05-29T13:17:34;29.60;1.00
12557;DHT22;6344;49.932;8.308;2023-05-29T13:20:01;29.80;1.00
12557;DHT22;6344;49.932;8.308;2023-05-29T13:22:27;29.80;1.00
12557;DHT22;6344;49.932;8.308;2023-05-29T13:24:58;30.00;1.00
12557;DHT22;6344;49.932;8.308;2023-05-29T13:27:25;30.50;1.00
12557;DHT22;6344;49.932;8.308;2023-05-29T13:29:53;30.20;1.00
12557;DHT22;6344;49.932;8.308;2023-05-29T13:32:20;29.40;1.00
12557;DHT22;6344;49.932;8.308;2023-05-29T13:34:46;29.50;1.00
12557;DHT22;6344;49.932;8.308;2023-05-29T13:37:13;29.60;1.00
12557;DHT22;6344;49.932;8.308;2023-05-29T13:39:40;30.40;1.00
12557;DHT22;6344;49.932;8.308;2023-05-29T13:42:08;30.50;1.00
12557;DHT22;6344;49.932;8.308;2023-05-29T13:44:38;30.30;1.00
12557;DHT22;6344;49.932;8.308;2023-05-29T13:47:05;30.20;1.00
12557;DHT22;6344;49.932;8.308;2023-05-29T13:49:32;29.50;1.00
12557;DHT22;6344;49.932;8.308;2023-05-29T13:51:59;29.30;1.00
12557;DHT22;6344;49.932;8.308;2023-05-29T13:54:25;29.80;1.00
12557;DHT22;6344;49.932;8.308;2023-05-29T13:56:55;30.20;1.00
12557;DHT22;6344;49.932;8.308;2023-05-29T13:59:23;29.00;1.00
12557;DHT22;6344;49.932;8.308;2023-05-29T14:01:50;28.90;1.00
12557;DHT22;6344;49.932;8.308;2023-05-29T14:04:17;29.40;1.00
12557;DHT22;6344;49.932;8.308;2023-05-29T14:10:28;29.20;1.00
12557;DHT22;6344;49.932;8.308;2023-05-29T14:12:54;28.90;1.00
12557;DHT22;6344;49.932;8.308;2023-05-29T14:15:22;29.00;1.00
12557;DHT22;6344;49.932;8.308;2023-05-29T14:17:49;28.90;1.00
12557;DHT22;6344;49.932;8.308;2023-05-29T14:27:00;29.20;1.00
12557;DHT22;6344;49.932;8.308;2023-05-29T14:29:26;28.60;1.00
12557;DHT22;6344;49.932;8.308;2023-05-29T14:31:54;29.40;1.00
12557;DHT22;6344;49.932;8.308;2023-05-29T14:34:21;29.60;1.00
12557;DHT22;6344;49.932;8.308;2023-05-29T14:36:48;30.00;1.00
12557;DHT22;6344;49.932;8.308;2023-05-29T14:39:14;29.60;1.00
12557;DHT22;6344;49.932;8.308;2023-05-29T14:41:41;30.00;1.00
12557;DHT22;6344;49.932;8.308;2023-05-29T14:44:08;29.40;1.00
12557;DHT22;6344;49.932;8.308;2023-05-29T14:46:36;29.20;1.00
12557;DHT22;6344;49.932;8.308;2023-05-29T14:49:04;29.10;1.00
12557;DHT22;6344;49.932;8.308;2023-05-29T14:51:31;29.50;1.00
12557;DHT22;6344;49.932;8.308;2023-05-29T14:53:58;29.20;1.00
12557;DHT22;6344;49.932;8.308;2023-05-29T14:56:25;30.20;1.00
12557;DHT22;6344;49.932;8.308;2023-05-29T14:58:52;29.40;1.00
12557;DHT22;6344;49.932;8.308;2023-05-29T15:01:19;30.00;1.00
12557;DHT22;6344;49.932;8.308;2023-05-29T15:03:45;29.50;1.00
12557;DHT22;6344;49.932;8.308;2023-05-29T15:06:13;29.20;1.00
12557;DHT22;6344;49.932;8.308;2023-05-29T15:08:40;28.40;1.00
12557;DHT22;6344;49.932;8.308;2023-05-29T15:11:08;28.40;1.00
12557;DHT22;6344;49.932;8.308;2023-05-29T15:13:35;29.50;1.00
12557;DHT22;6344;49.932;8.308;2023-05-29T15:16:02;29.60;1.00
12557;DHT22;6344;49.932;8.308;2023-05-29T15:18:29;29.50;1.00
12557;DHT22;6344;49.932;8.308;2023-05-29T15:20:55;29.40;1.00
12557;DHT22;6344;49.932;8.308;2023-05-29T15:23:24;29.60;1.00
12557;DHT22;6344;49.932;8.308;2023-05-29T15:25:51;29.70;1.00
12557;DHT22;6344;49.932;8.308;2023-05-29T15:28:18;29.60;1.00
12557;DHT22;6344;49.932;8.308;2023-05-29T15:30:45;29.50;1.00
12557;DHT22;6344;49.932;8.308;2023-05-29T15:33:12;29.20;1.00
12557;DHT22;6344;49.932;8.308;2023-05-29T15:35:39;29.30;1.00
12557;DHT22;6344;49.932;8.308;2023-05-29T15:38:08;29.30;1.00
12557;DHT22;6344;49.932;8.308;2023-05-29T15:40:36;29.50;1.00
12557;DHT22;6344;49.932;8.308;2023-05-29T15:43:02;29.30;1.00
12557;DHT22;6344;49.932;8.308;2023-05-29T15:45:29;29.40;1.00
12557;DHT22;6344;49.932;8.308;2023-05-29T15:47:56;29.20;1.00
12557;DHT22;6344;49.932;8.308;2023-05-29T15:50:22;29.40;1.00
12557;DHT22;6344;49.932;8.308;2023-05-29T15:52:49;29.50;1.00
12557;DHT22;6344;49.932;8.308;2023-05-29T15:55:16;28.40;1.00
12557;DHT22;6344;49.932;8.308;2023-05-29T15:57:44;28.30;1.00
12557;DHT22;6344;49.932;8.308;2023-05-29T16:00:14;28.30;1.00
12557;DHT22;6344;49.932;8.308;2023-05-29T16:02:41;28.30;1.00
12557;DHT22;6344;49.932;8.308;2023-05-29T16:05:08;28.30;1.00
12557;DHT22;6344;49.932;8.308;2023-05-29T16:07:35;28.40;1.00
12557;DHT22;6344;49.932;8.308;2023-05-29T16:10:03;28.30;1.00